createdAt,value
2023-01-04T00:02:07.060Z,-3.50
2023-01-04T00:04:35.417Z,-3.50
2023-01-04T00:07:03.597Z,-3.40
2023-01-04T00:09:34.248Z,-3.40
2023-01-04T00:12:02.454Z,-3.40
2023-01-04T00:14:30.723Z,-3.50
2023-01-04T00:17:00.344Z,-3.50
2023-01-04T00:19:28.686Z,-3.50
2023-01-04T00:21:56.906Z,-3.40
2023-01-04T00:24:25.099Z,-3.40
2023-01-04T00:26:53.454Z,-3.40
2023-01-04T00:29:21.785Z,-3.40
2023-01-04T00:31:50.060Z,-3.40
2023-01-04T00:34:20.227Z,-3.40
2023-01-04T00:36:48.696Z,-3.40
2023-01-04T00:39:18.878Z,-3.40
2023-01-04T00:42:03.166Z,-3.40
2023-01-04T00:44:31.390Z,-3.40
2023-01-04T00:46:59.591Z,-3.40
2023-01-04T00:49:30.182Z,-3.40
2023-01-04T00:51:58.862Z,-3.30
2023-01-04T00:54:27.143Z,-3.30
2023-01-04T00:56:55.460Z,-3.30
2023-01-04T00:59:23.824Z,-3.30
2023-01-04T01:01:52.487Z,-3.30
2023-01-04T01:04:22.441Z,-3.30
2023-01-04T01:06:52.549Z,-3.30
2023-01-04T01:09:23.248Z,-3.30
2023-01-04T01:11:51.732Z,-3.40
2023-01-04T01:14:20.862Z,-3.40
2023-01-04T01:16:58.185Z,-3.30
2023-01-04T01:19:27.718Z,-3.40
2023-01-04T01:21:58.030Z,-3.30
2023-01-04T01:24:26.903Z,-3.30
2023-01-04T01:26:55.730Z,-3.30
2023-01-04T01:29:24.121Z,-3.30
2023-01-04T01:31:52.495Z,-3.40
2023-01-04T01:34:24.001Z,-3.40
2023-01-04T01:36:54.379Z,-3.40
2023-01-04T01:39:23.930Z,-3.40
2023-01-04T01:41:54.827Z,-3.40
2023-01-04T01:44:41.297Z,-3.40
2023-01-04T01:47:12.627Z,-3.40
2023-01-04T01:49:41.074Z,-3.30
2023-01-04T01:52:10.985Z,-3.30
2023-01-04T01:54:42.844Z,-3.30
2023-01-04T01:57:12.287Z,-3.30
2023-01-04T01:59:41.814Z,-3.40
2023-01-04T02:02:10.175Z,-3.40
2023-01-04T02:04:39.959Z,-3.40
2023-01-04T02:07:09.181Z,-3.40
2023-01-04T02:09:38.279Z,-3.30
2023-01-04T02:12:12.013Z,-3.30
2023-01-04T02:14:40.639Z,-3.30
2023-01-04T02:17:12.031Z,-3.30
2023-01-04T02:19:50.678Z,-3.30
2023-01-04T02:22:36.493Z,-3.30
2023-01-04T02:25:20.127Z,-3.30
2023-01-04T02:27:53.703Z,-3.20
2023-01-04T02:30:32.704Z,-3.20
2023-01-04T02:33:07.635Z,-3.20
2023-01-04T02:35:40.507Z,-3.20
2023-01-04T02:38:15.934Z,-3.20
2023-01-04T02:40:48.313Z,-3.20
2023-01-04T02:43:35.925Z,-3.20
2023-01-04T02:46:05.998Z,-3.10
2023-01-04T02:48:56.658Z,-3.20
2023-01-04T02:51:27.235Z,-3.20
2023-01-04T02:53:55.783Z,-3.20
2023-01-04T02:56:35.863Z,-3.10
2023-01-04T02:59:15.282Z,-3.10
2023-01-04T03:02:09.555Z,-3.10
2023-01-04T03:05:06.580Z,-3.10
2023-01-04T03:07:39.003Z,-3.00
2023-01-04T03:10:09.831Z,-3.00
2023-01-04T03:12:42.246Z,-3.10
2023-01-04T03:15:12.977Z,-3.00
2023-01-04T03:17:46.592Z,-3.00
2023-01-04T03:20:18.418Z,-3.00
2023-01-04T03:23:05.952Z,-3.00
2023-01-04T03:25:53.570Z,-3.00
2023-01-04T03:28:39.560Z,-2.90
2023-01-04T03:31:27.560Z,-2.90
2023-01-04T03:34:14.556Z,-2.90
2023-01-04T03:36:51.453Z,-2.90
2023-01-04T03:39:40.526Z,-2.80
2023-01-04T03:42:31.310Z,-2.90
2023-01-04T03:45:20.947Z,-2.80
2023-01-04T03:48:07.938Z,-2.90
2023-01-04T03:50:39.769Z,-2.80
2023-01-04T03:53:10.541Z,-2.80
2023-01-04T03:55:40.489Z,-2.80
2023-01-04T03:58:08.667Z,-2.80
2023-01-04T04:00:36.876Z,-2.70
2023-01-04T04:03:08.370Z,-2.80
2023-01-04T04:05:56.068Z,-2.80
2023-01-04T04:08:26.907Z,-2.70
2023-01-04T04:10:55.597Z,-2.70
2023-01-04T04:13:24.107Z,-2.80
2023-01-04T04:15:53.690Z,-2.80
2023-01-04T04:18:21.894Z,-2.70
2023-01-04T04:20:58.058Z,-2.80
2023-01-04T04:23:27.698Z,-2.80
2023-01-04T04:25:55.983Z,-2.80
2023-01-04T04:28:24.266Z,-2.70
2023-01-04T04:30:52.388Z,-2.80
2023-01-04T04:33:20.681Z,-2.80
2023-01-04T04:35:51.570Z,-2.80
2023-01-04T04:38:19.789Z,-2.80
2023-01-04T04:41:06.966Z,-2.80
2023-01-04T04:43:35.835Z,-2.80
2023-01-04T04:46:04.648Z,-2.80
2023-01-04T04:48:33.087Z,-2.70
2023-01-04T04:51:01.206Z,-2.70
2023-01-04T04:53:29.464Z,-2.80
2023-01-04T04:55:59.185Z,-2.80
2023-01-04T04:58:27.327Z,-2.80
2023-01-04T05:00:55.476Z,-2.80
2023-01-04T05:03:24.976Z,-2.80
2023-01-04T05:05:55.084Z,-2.80
2023-01-04T05:08:23.509Z,-2.80
2023-01-04T05:10:51.675Z,-2.80
2023-01-04T05:13:20.251Z,-2.80
2023-01-04T05:15:49.806Z,-2.80
2023-01-04T05:18:18.675Z,-2.80
2023-01-04T05:20:47.197Z,-2.80
2023-01-04T05:23:16.141Z,-2.80
2023-01-04T05:25:44.511Z,-2.80
2023-01-04T05:28:12.667Z,-2.80
2023-01-04T05:30:55.896Z,-2.80
2023-01-04T05:33:25.453Z,-2.80
2023-01-04T05:35:54.606Z,-2.70
2023-01-04T05:38:23.215Z,-2.70
2023-01-04T05:40:51.954Z,-2.70
2023-01-04T05:43:20.014Z,-2.70
2023-01-04T05:45:50.625Z,-2.70
2023-01-04T05:48:18.843Z,-2.70
2023-01-04T05:50:47.272Z,-2.70
2023-01-04T05:53:17.440Z,-2.70
2023-01-04T05:55:45.775Z,-2.70
2023-01-04T05:58:13.959Z,-2.70
2023-01-04T06:00:42.155Z,-2.70
2023-01-04T06:03:11.889Z,-2.70
2023-01-04T06:05:40.340Z,-2.70
2023-01-04T06:08:11.200Z,-2.70
2023-01-04T06:10:39.405Z,-2.70
2023-01-04T06:13:07.553Z,-2.70
2023-01-04T06:15:41.144Z,-2.70
2023-01-04T06:18:13.985Z,-2.70
2023-01-04T06:20:43.484Z,-2.70
2023-01-04T06:23:11.827Z,-2.70
2023-01-04T06:25:40.107Z,-2.70
2023-01-04T06:28:08.377Z,-2.70
2023-01-04T06:30:36.937Z,-2.60
2023-01-04T06:33:05.448Z,-2.60
2023-01-04T06:35:36.131Z,-2.60
2023-01-04T06:38:04.465Z,-2.70
2023-01-04T06:40:32.702Z,-2.70
2023-01-04T06:43:03.833Z,-2.70
2023-01-04T06:45:32.040Z,-2.70
2023-01-04T06:48:04.435Z,-2.70
2023-01-04T06:50:37.063Z,-2.70
2023-01-04T06:53:05.382Z,-2.60
2023-01-04T06:55:33.550Z,-2.60
2023-01-04T06:58:04.179Z,-2.60
2023-01-04T07:00:32.367Z,-2.60
2023-01-04T07:03:14.144Z,-2.60
2023-01-04T07:05:45.519Z,-2.50
2023-01-04T07:08:14.146Z,-2.60
2023-01-04T07:10:42.573Z,-2.60
2023-01-04T07:13:11.102Z,-2.60
2023-01-04T07:15:40.974Z,-2.50
2023-01-04T07:18:09.582Z,-2.50
2023-01-04T07:20:37.788Z,-2.60
2023-01-04T07:23:08.139Z,-2.50
2023-01-04T07:25:36.331Z,-2.40
2023-01-04T07:28:04.650Z,-2.30
2023-01-04T07:30:32.973Z,-2.10
2023-01-04T07:33:01.194Z,-2.20
2023-01-04T07:35:29.453Z,-2.20
2023-01-04T07:37:59.126Z,-2.20
2023-01-04T07:40:29.425Z,-2.20
2023-01-04T07:42:58.463Z,-2.20
2023-01-04T07:45:26.743Z,-2.10
2023-01-04T07:47:55.181Z,-2.00
2023-01-04T07:50:24.528Z,-2.10
2023-01-04T07:52:52.684Z,-2.00
2023-01-04T07:55:21.046Z,-1.90
2023-01-04T07:57:50.721Z,-1.90
2023-01-04T08:00:21.770Z,-2.00
2023-01-04T08:02:50.536Z,-2.00
2023-01-04T08:05:18.973Z,-1.80
2023-01-04T08:07:47.166Z,-1.80
2023-01-04T08:10:15.537Z,-1.80
2023-01-04T08:12:43.830Z,-1.80
2023-01-04T08:15:15.146Z,-1.80
2023-01-04T08:17:43.250Z,-1.80
2023-01-04T08:20:11.873Z,-1.80
2023-01-04T08:22:42.954Z,-1.80
2023-01-04T08:25:11.475Z,-1.80
2023-01-04T08:27:39.822Z,-1.70
2023-01-04T08:30:08.799Z,-1.70
2023-01-04T08:32:41.182Z,-1.80
2023-01-04T08:35:09.603Z,-1.90
2023-01-04T08:37:39.407Z,-2.00
2023-01-04T08:40:08.185Z,-2.00
2023-01-04T08:42:36.600Z,-2.00
2023-01-04T08:45:05.272Z,-2.10
2023-01-04T08:47:34.015Z,-2.10
2023-01-04T08:50:10.308Z,-2.20
2023-01-04T08:52:39.241Z,-2.20
2023-01-04T08:55:12.505Z,-2.20
2023-01-04T08:57:41.750Z,-2.20
2023-01-04T09:00:10.658Z,-2.20
2023-01-04T09:02:39.102Z,-2.20
2023-01-04T09:05:09.604Z,-2.20
2023-01-04T09:07:37.860Z,-2.20
2023-01-04T09:10:06.356Z,-2.20
2023-01-04T09:12:34.584Z,-2.20
2023-01-04T09:15:02.775Z,-2.10
2023-01-04T09:17:31.062Z,-2.10
2023-01-04T09:19:59.257Z,-2.10
2023-01-04T09:22:32.155Z,-2.10
2023-01-04T09:25:00.531Z,-2.10
2023-01-04T09:27:28.749Z,-2.00
2023-01-04T09:29:59.905Z,-2.00
2023-01-04T09:32:28.173Z,-1.90
2023-01-04T09:34:56.508Z,-1.80
2023-01-04T09:37:24.695Z,-1.80
2023-01-04T09:39:54.361Z,-1.80
2023-01-04T09:42:29.267Z,-1.80
2023-01-04T09:45:23.901Z,-1.80
2023-01-04T09:47:55.038Z,-1.70
2023-01-04T09:50:25.711Z,-1.80
2023-01-04T09:52:58.388Z,-1.80
2023-01-04T09:55:37.092Z,-1.80
2023-01-04T09:58:14.026Z,-1.70
2023-01-04T10:00:46.248Z,-1.80
2023-01-04T10:03:16.326Z,-1.70
2023-01-04T10:05:44.718Z,-1.80
2023-01-04T10:08:16.112Z,-1.70
2023-01-04T10:10:52.151Z,-1.80
2023-01-04T10:13:28.311Z,-1.70
2023-01-04T10:16:01.572Z,-1.70
2023-01-04T10:21:34.171Z,-1.60
2023-01-04T10:24:24.102Z,-1.60
2023-01-04T10:26:56.530Z,-1.60
2023-01-04T10:29:31.002Z,-1.70
2023-01-04T10:32:01.808Z,-1.60
2023-01-04T10:34:30.933Z,-1.60
2023-01-04T10:37:00.288Z,-1.60
2023-01-04T10:39:32.994Z,-1.60
2023-01-04T10:42:08.324Z,-1.60
2023-01-04T10:44:40.114Z,-1.60
2023-01-04T10:47:13.347Z,-1.60
2023-01-04T10:49:43.338Z,-1.60
2023-01-04T10:52:14.067Z,-1.50
2023-01-04T10:54:44.131Z,-1.50
2023-01-04T10:57:17.472Z,-1.50
2023-01-04T10:59:47.844Z,-1.50
2023-01-04T11:02:20.613Z,-1.50
2023-01-04T11:04:53.043Z,-1.50
2023-01-04T11:07:22.932Z,-1.50
2023-01-04T11:09:53.322Z,-1.50
2023-01-04T11:12:26.239Z,-1.50
2023-01-04T11:14:54.562Z,-1.50
2023-01-04T11:17:24.099Z,-1.50
2023-01-04T11:19:52.343Z,-1.50
2023-01-04T11:22:23.585Z,-1.40
2023-01-04T11:25:32.934Z,-1.50
2023-01-04T11:27:48.342Z,-1.50
2023-01-04T11:30:18.397Z,-1.40
2023-01-04T11:32:50.966Z,-1.40
2023-01-04T11:35:42.309Z,-1.40
2023-01-04T11:38:12.222Z,-1.50
2023-01-04T11:40:41.445Z,-1.40
2023-01-04T11:43:18.272Z,-1.40
2023-01-04T11:45:56.700Z,-1.50
2023-01-04T11:48:39.807Z,-1.40
2023-01-04T11:51:17.284Z,-1.40
2023-01-04T11:53:45.556Z,-1.40
2023-01-04T11:56:19.221Z,-1.40
2023-01-04T11:59:04.781Z,-1.50
2023-01-04T12:01:34.509Z,-1.50
2023-01-04T12:04:05.140Z,-1.50
2023-01-04T12:06:39.247Z,-1.40
2023-01-04T12:09:07.585Z,-1.40
2023-01-04T12:11:37.207Z,-1.40
2023-01-04T12:14:15.502Z,-1.40
2023-01-04T12:16:46.907Z,-1.40
2023-01-04T12:19:16.146Z,-1.40
2023-01-04T12:21:45.763Z,-1.40
2023-01-04T12:24:21.432Z,-1.40
2023-01-04T12:26:50.711Z,-1.40
2023-01-04T12:29:48.945Z,-1.40
2023-01-04T12:32:35.528Z,-1.40
2023-01-04T12:35:05.295Z,-1.40
2023-01-04T12:37:49.507Z,-1.50
2023-01-04T12:40:36.206Z,-1.50
2023-01-04T12:43:24.251Z,-1.50
2023-01-04T12:46:32.500Z,-1.50
2023-01-04T12:49:23.989Z,-1.50
2023-01-04T12:52:34.372Z,-1.60
2023-01-04T12:55:03.182Z,-1.60
2023-01-04T12:57:37.215Z,-1.60
2023-01-04T13:00:08.208Z,-1.60
2023-01-04T13:02:37.691Z,-1.60
2023-01-04T13:05:57.895Z,-1.60
2023-01-04T13:08:16.595Z,-1.60
2023-01-04T13:10:48.159Z,-1.50
2023-01-04T13:13:30.210Z,-1.60
2023-01-04T13:16:04.961Z,-1.60
2023-01-04T13:18:37.572Z,-1.60
2023-01-04T13:21:12.448Z,-1.60
2023-01-04T13:23:41.073Z,-1.60
2023-01-04T13:26:27.888Z,-1.60
2023-01-04T13:29:06.561Z,-1.60
2023-01-04T13:31:40.116Z,-1.60
2023-01-04T13:34:13.804Z,-1.60
2023-01-04T13:36:43.365Z,-1.60
2023-01-04T13:39:16.471Z,-1.50
2023-01-04T13:41:46.967Z,-1.40
2023-01-04T13:44:21.191Z,-1.40
2023-01-04T13:46:50.264Z,-1.40
2023-01-04T13:49:18.657Z,-1.40
2023-01-04T13:51:48.323Z,-1.50
2023-01-04T13:54:20.403Z,-1.40
2023-01-04T13:56:55.264Z,-1.40
2023-01-04T13:59:24.054Z,-1.40
2023-01-04T14:01:53.465Z,-1.50
2023-01-04T14:04:25.768Z,-1.40
2023-01-04T14:06:57.896Z,-1.40
2023-01-04T14:09:30.153Z,-1.40
2023-01-04T14:12:09.653Z,-1.40
2023-01-04T14:14:42.060Z,-1.50
2023-01-04T14:17:18.147Z,-1.50
2023-01-04T14:19:48.262Z,-1.40
2023-01-04T14:22:49.336Z,-1.40
2023-01-04T14:25:38.448Z,-1.40
2023-01-04T14:28:28.745Z,-1.50
2023-01-04T14:30:58.118Z,-1.40
2023-01-04T14:33:29.195Z,-1.40
2023-01-04T14:36:04.486Z,-1.40
2023-01-04T14:38:37.011Z,-1.40
2023-01-04T14:41:13.480Z,-1.40
2023-01-04T14:43:46.119Z,-1.40
2023-01-04T14:46:14.594Z,-1.40
2023-01-04T14:48:42.885Z,-1.40
2023-01-04T14:51:15.365Z,-1.40
2023-01-04T14:53:43.703Z,-1.40
2023-01-04T14:56:15.964Z,-1.40
2023-01-04T14:58:44.590Z,-1.40
2023-01-04T15:01:13.578Z,-1.50
2023-01-04T15:03:42.141Z,-1.50
2023-01-04T15:06:11.758Z,-1.50
2023-01-04T15:08:39.884Z,-1.50
2023-01-04T15:11:10.132Z,-1.40
2023-01-04T15:13:40.075Z,-1.50
2023-01-04T15:16:12.625Z,-1.50
2023-01-04T15:18:41.251Z,-1.50
2023-01-04T15:21:09.709Z,-1.50
2023-01-04T15:23:38.473Z,-1.50
2023-01-04T15:26:07.390Z,-1.50
2023-01-04T15:28:35.789Z,-1.50
2023-01-04T15:31:08.608Z,-1.60
2023-01-04T15:33:37.090Z,-1.60
2023-01-04T15:36:06.100Z,-1.60
2023-01-04T15:38:34.470Z,-1.60
2023-01-04T15:41:03.515Z,-1.70
2023-01-04T15:43:35.999Z,-1.80
2023-01-04T15:46:07.306Z,-1.80
2023-01-04T15:48:37.796Z,-1.70
2023-01-04T15:51:07.932Z,-1.70
2023-01-04T15:53:36.341Z,-1.80
2023-01-04T15:56:08.217Z,-1.70
2023-01-04T15:58:36.480Z,-1.80
2023-01-04T16:01:09.089Z,-1.80
2023-01-04T16:03:39.344Z,-1.80
2023-01-04T16:06:09.962Z,-1.80
2023-01-04T16:08:40.512Z,-1.80
2023-01-04T16:11:12.675Z,-1.80
2023-01-04T16:13:41.056Z,-1.80
2023-01-04T16:16:09.594Z,-1.80
2023-01-04T16:18:39.231Z,-1.80
2023-01-04T16:21:08.674Z,-1.80
2023-01-04T16:23:37.060Z,-1.80
2023-01-04T16:26:06.112Z,-1.80
2023-01-04T16:28:34.521Z,-1.70
2023-01-04T16:31:02.893Z,-1.80
2023-01-04T16:33:31.402Z,-1.80
2023-01-04T16:36:08.002Z,-1.80
2023-01-04T16:38:40.527Z,-1.70
2023-01-04T16:41:11.914Z,-1.70
2023-01-04T16:43:46.537Z,-1.70
2023-01-04T16:46:25.155Z,-1.70
2023-01-04T16:48:54.318Z,-1.60
2023-01-04T16:51:24.534Z,-1.60
2023-01-04T16:53:53.516Z,-1.60
2023-01-04T16:56:22.728Z,-1.60
2023-01-04T16:58:51.151Z,-1.50
2023-01-04T17:01:20.580Z,-1.50
2023-01-04T17:03:49.454Z,-1.50
2023-01-04T17:06:18.380Z,-1.50
2023-01-04T17:08:51.843Z,-1.60
2023-01-04T17:14:11.863Z,-1.50
2023-01-04T17:16:41.067Z,-1.50
2023-01-04T17:19:09.276Z,-1.50
2023-01-04T17:21:37.415Z,-1.50
2023-01-04T17:24:07.421Z,-1.50
2023-01-04T17:26:35.552Z,-1.50
2023-01-04T17:29:04.182Z,-1.60
2023-01-04T17:31:33.735Z,-1.60
2023-01-04T17:34:02.394Z,-1.60
2023-01-04T17:36:30.749Z,-1.60
2023-01-04T17:38:59.891Z,-1.60
2023-01-04T17:41:30.201Z,-1.60
2023-01-04T17:44:00.987Z,-1.60
2023-01-04T17:46:31.965Z,-1.60
2023-01-04T17:51:54.551Z,-1.50
2023-01-04T17:54:24.131Z,-1.50
2023-01-04T17:56:53.948Z,-1.50
2023-01-04T17:59:22.186Z,-1.50
2023-01-04T18:01:53.662Z,-1.50
2023-01-04T18:04:21.985Z,-1.50
2023-01-04T18:06:50.087Z,-1.50
2023-01-04T18:09:22.221Z,-1.50
2023-01-04T18:11:56.179Z,-1.40
2023-01-04T18:14:24.466Z,-1.40
2023-01-04T18:17:01.643Z,-1.40
2023-01-04T18:19:31.133Z,-1.40
2023-01-04T18:22:00.004Z,-1.30
2023-01-04T18:24:36.628Z,-1.30
2023-01-04T18:27:24.349Z,-1.30
2023-01-04T18:29:57.729Z,-1.30
2023-01-04T18:32:26.411Z,-1.30
2023-01-04T18:34:54.805Z,-1.30
2023-01-04T18:37:23.042Z,-1.30
2023-01-04T18:39:51.367Z,-1.40
2023-01-04T18:42:21.209Z,-1.30
2023-01-04T18:44:50.085Z,-1.30
2023-01-04T18:47:18.545Z,-1.30
2023-01-04T18:49:46.732Z,-1.30
2023-01-04T18:52:15.139Z,-1.30
2023-01-04T18:54:45.086Z,-1.30
2023-01-04T18:57:13.687Z,-1.30
2023-01-04T18:59:43.224Z,-1.30
2023-01-04T19:02:16.508Z,-1.30
2023-01-04T19:04:45.183Z,-1.30
2023-01-04T19:07:13.345Z,-1.30
2023-01-04T19:09:42.840Z,-1.30
2023-01-04T19:12:11.446Z,-1.40
2023-01-04T19:14:39.586Z,-1.40
2023-01-04T19:17:09.556Z,-1.30
2023-01-04T19:19:38.104Z,-1.30
2023-01-04T19:22:06.428Z,-1.30
2023-01-04T19:24:34.711Z,-1.40
2023-01-04T19:27:05.394Z,-1.40
2023-01-04T19:29:34.205Z,-1.40
2023-01-04T19:32:02.513Z,-1.40
2023-01-04T19:34:32.336Z,-1.40
2023-01-04T19:37:00.780Z,-1.30
2023-01-04T19:39:29.001Z,-1.40
2023-01-04T19:41:57.312Z,-1.40
2023-01-04T19:44:25.706Z,-1.30
2023-01-04T19:46:54.057Z,-1.30
2023-01-04T19:49:22.249Z,-1.30
2023-01-04T19:51:51.982Z,-1.30
2023-01-04T19:54:25.202Z,-1.30
2023-01-04T19:56:56.872Z,-1.30
2023-01-04T19:59:25.396Z,-1.30
2023-01-04T20:01:53.706Z,-1.30
2023-01-04T20:04:22.018Z,-1.40
2023-01-04T20:06:51.667Z,-1.30
2023-01-04T20:09:24.814Z,-1.30
2023-01-04T20:11:53.629Z,-1.30
2023-01-04T20:14:22.127Z,-1.30
2023-01-04T20:16:50.383Z,-1.40
2023-01-04T20:19:18.730Z,-1.40
2023-01-04T20:21:47.019Z,-1.40
2023-01-04T20:24:16.751Z,-1.30
2023-01-04T20:26:45.122Z,-1.30
2023-01-04T20:29:13.454Z,-1.30
2023-01-04T20:31:45.587Z,-1.30
2023-01-04T20:34:14.301Z,-1.40
2023-01-04T20:36:42.559Z,-1.40
2023-01-04T20:39:10.720Z,-1.40
2023-01-04T20:42:00.466Z,-1.40
2023-01-04T20:44:27.684Z,-1.50
2023-01-04T20:46:55.900Z,-1.50
2023-01-04T20:49:24.102Z,-1.50
2023-01-04T20:51:52.319Z,-1.50
2023-01-04T20:54:20.442Z,-1.50
2023-01-04T20:56:50.120Z,-1.50
2023-01-04T20:59:18.275Z,-1.60
2023-01-04T21:01:46.774Z,-1.60
2023-01-04T21:04:16.479Z,-1.60
2023-01-04T21:06:45.000Z,-1.60
2023-01-04T21:09:13.355Z,-1.60
2023-01-04T21:11:41.476Z,-1.60
2023-01-04T21:14:12.234Z,-1.60
2023-01-04T21:16:42.105Z,-1.60
2023-01-04T21:19:10.311Z,-1.60
2023-01-04T21:21:42.842Z,-1.60
2023-01-04T21:24:11.222Z,-1.70
2023-01-04T21:26:39.382Z,-1.60
2023-01-04T21:29:07.605Z,-1.60
2023-01-04T21:31:37.414Z,-1.60
2023-01-04T21:34:11.010Z,-1.60
2023-01-04T21:36:42.034Z,-1.60
2023-01-04T21:39:10.219Z,-1.50
2023-01-04T21:41:42.902Z,-1.60
2023-01-04T21:44:14.259Z,-1.60
2023-01-04T21:46:44.105Z,-1.60
2023-01-04T21:49:12.770Z,-1.50
2023-01-04T21:51:40.935Z,-1.50
2023-01-04T21:54:09.174Z,-1.50
2023-01-04T21:56:37.563Z,-1.50
2023-01-04T21:59:05.785Z,-1.40
2023-01-04T22:01:35.401Z,-1.40
2023-01-04T22:04:05.651Z,-1.40
2023-01-04T22:06:37.479Z,-1.40
2023-01-04T22:09:05.953Z,-1.40
2023-01-04T22:11:34.139Z,-1.40
2023-01-04T22:14:02.501Z,-1.40
2023-01-04T22:16:30.739Z,-1.40
2023-01-04T22:18:58.957Z,-1.30
2023-01-04T22:21:28.566Z,-1.40
2023-01-04T22:23:56.886Z,-1.40
2023-01-04T22:26:25.162Z,-1.30
2023-01-04T22:28:53.537Z,-1.30
2023-01-04T22:31:21.672Z,-1.30
2023-01-04T22:33:49.918Z,-1.40
2023-01-04T22:36:22.885Z,-1.30
2023-01-04T22:38:53.752Z,-1.30
2023-01-04T22:41:29.212Z,-1.30
2023-01-04T22:43:57.937Z,-1.30
2023-01-04T22:46:26.577Z,-1.30
2023-01-04T22:48:57.928Z,-1.40
2023-01-04T22:51:27.696Z,-1.30
2023-01-04T22:53:57.853Z,-1.30
2023-01-04T22:56:27.053Z,-1.40
2023-01-04T22:58:56.092Z,-1.30
2023-01-04T23:01:24.687Z,-1.30
2023-01-04T23:03:53.395Z,-1.30
2023-01-04T23:06:24.280Z,-1.30
2023-01-04T23:08:55.906Z,-1.30
2023-01-04T23:11:26.220Z,-1.30
2023-01-04T23:13:54.428Z,-1.40
2023-01-04T23:16:27.864Z,-1.40
2023-01-04T23:19:00.009Z,-1.40
2023-01-04T23:21:30.063Z,-1.30
2023-01-04T23:23:58.320Z,-1.30
2023-01-04T23:26:28.686Z,-1.30
2023-01-04T23:28:57.562Z,-1.30
2023-01-04T23:31:26.555Z,-1.30
2023-01-04T23:33:55.470Z,-1.30
2023-01-04T23:36:27.616Z,-1.30
2023-01-04T23:38:57.154Z,-1.40
2023-01-04T23:41:44.675Z,-1.40
2023-01-04T23:44:18.556Z,-1.40
2023-01-04T23:46:47.269Z,-1.40
2023-01-04T23:49:21.528Z,-1.50
2023-01-04T23:51:49.648Z,-1.50
2023-01-04T23:54:18.006Z,-1.50
2023-01-04T23:56:46.388Z,-1.50
2023-01-04T23:59:16.109Z,-1.50
